Time;durP1;ratioP1;P1;durP2;ratioP2;P2;SDS_P1;SDS_P2;PMS_P1;PMS_P2;Temp;Humidity;BMP_temperature;BMP_pressure;BME280_temperature;BME280_humidity;BME280_pressure;Samples;Min_cycle;Max_cycle;Signal;HPM_P1;HPM_P2
2021/07/16 00:00:30;;;;;;;23.40;7.70;;;14.20;99.90;;;;;;4937602;29;20047;-85
2021/07/16 00:03:27;;;;;;;16.67;7.22;;;14.70;99.90;;;;;;4906113;29;20062;-86
2021/07/16 00:05:58;;;;;;;16.55;8.38;;;15.60;99.90;;;;;;4953096;29;20056;-85
2021/07/16 00:08:29;;;;;;;24.25;9.00;;;14.70;99.90;;;;;;4936053;29;20058;-85
2021/07/16 00:11:00;;;;;;;14.95;6.95;;;14.60;99.90;;;;;;4928696;29;20056;-84
2021/07/16 00:14:04;;;;;;;21.80;8.07;;;14.60;99.90;;;;;;4950238;29;20059;-85
2021/07/16 00:16:34;;;;;;;22.30;8.32;;;14.60;99.90;;;;;;4962869;29;20063;-85
2021/07/16 00:19:02;;;;;;;20.80;8.70;;;14.50;99.90;;;;;;4953136;29;20048;-86
2021/07/16 00:21:34;;;;;;;22.00;8.23;;;14.50;99.90;;;;;;4950326;29;20059;-84
2021/07/16 00:24:05;;;;;;;21.75;8.40;;;14.40;99.90;;;;;;4950968;29;20063;-86
2021/07/16 00:26:38;;;;;;;18.67;7.38;;;14.40;99.90;;;;;;4950408;29;20056;-85
2021/07/16 00:29:09;;;;;;;20.65;8.32;;;15.30;99.90;;;;;;4949196;29;20040;-85
2021/07/16 00:31:38;;;;;;;19.40;8.20;;;14.30;99.90;;;;;;4948886;29;20051;-85
2021/07/16 00:34:07;;;;;;;20.00;8.77;;;14.30;99.90;;;;;;4928395;29;20067;-85
2021/07/16 00:36:42;;;;;;;29.40;9.85;;;14.20;99.90;;;;;;4933489;29;20127;-85
2021/07/16 00:39:14;;;;;;;23.58;7.25;;;14.20;99.90;;;;;;4918844;29;20054;-84
2021/07/16 00:41:43;;;;;;;17.05;6.97;;;14.20;99.90;;;;;;4946685;29;20059;-85
2021/07/16 00:44:12;;;;;;;15.18;8.07;;;14.10;99.90;;;;;;4932571;29;20050;-84
2021/07/16 00:46:44;;;;;;;27.42;8.65;;;14.10;99.90;;;;;;4949032;29;20059;-84
2021/07/16 00:49:12;;;;;;;16.20;8.32;;;14.10;99.90;;;;;;4933991;29;20051;-84
2021/07/16 00:51:51;;;;;;;17.08;8.82;;;14.10;99.90;;;;;;4914608;29;20052;-87
2021/07/16 00:54:20;;;;;;;23.42;8.57;;;14.00;99.90;;;;;;4932977;29;20048;-84
2021/07/16 00:56:53;;;;;;;27.35;8.52;;;14.00;99.90;;;;;;4941216;29;20051;-85
2021/07/16 00:59:30;;;;;;;24.08;8.35;;;14.00;99.90;;;;;;4937149;29;20054;-85
2021/07/16 01:02:21;;;;;;;20.88;9.75;;;13.90;99.90;;;;;;4936046;29;20248;-84
2021/07/16 01:04:53;;;;;;;24.25;8.50;;;13.90;99.90;;;;;;4953034;29;20051;-84
2021/07/16 01:07:24;;;;;;;26.25;9.60;;;13.90;99.90;;;;;;4953576;29;20051;-84
2021/07/16 01:09:56;;;;;;;26.10;8.73;;;13.80;99.90;;;;;;4937592;29;20055;-85
2021/07/16 01:12:27;;;;;;;21.05;8.02;;;13.80;99.90;;;;;;4954007;29;20066;-85
2021/07/16 01:15:32;;;;;;;16.10;7.97;;;13.80;99.90;;;;;;4941693;29;20056;-84
2021/07/16 01:18:00;;;;;;;24.10;9.60;;;13.80;99.90;;;;;;4954508;29;20047;-84
2021/07/16 01:20:31;;;;;;;17.92;7.57;;;13.70;99.90;;;;;;4954869;29;20040;-84
2021/07/16 01:23:01;;;;;;;23.00;8.38;;;13.70;99.90;;;;;;4954545;29;20048;-85
2021/07/16 01:25:34;;;;;;;17.65;9.15;;;13.70;99.90;;;;;;4955682;29;20055;-85
2021/07/16 01:28:04;;;;;;;24.80;8.85;;;13.60;99.90;;;;;;4939679;29;20031;-84
2021/07/16 01:30:38;;;;;;;22.70;7.75;;;13.60;99.90;;;;;;4955620;29;20051;-84
2021/07/16 01:33:10;;;;;;;28.70;8.27;;;13.60;99.90;;;;;;4936510;29;20046;-84
2021/07/16 01:35:55;;;;;;;23.55;9.10;;;13.60;99.90;;;;;;4951156;29;20047;-85
2021/07/16 01:38:28;;;;;;;;;;;13.50;99.90;;;;;;4947084;29;20051;-85
2021/07/16 01:40:58;;;;;;;17.02;8.60;;;13.50;99.90;;;;;;4945918;29;19922;-84
2021/07/16 01:43:29;;;;;;;23.02;8.40;;;13.50;99.90;;;;;;4948664;29;20043;-85
2021/07/16 01:45:59;;;;;;;26.52;10.05;;;13.80;99.90;;;;;;4928421;29;20487;-84
2021/07/16 01:48:35;;;;;;;15.52;8.15;;;13.40;99.90;;;;;;4944444;29;20051;-83
2021/07/16 01:51:05;;;;;;;22.20;8.63;;;13.40;99.90;;;;;;4945980;29;20518;-84
2021/07/16 01:53:37;;;;;;;23.08;10.45;;;13.40;99.90;;;;;;4928680;29;20433;-84
2021/07/16 01:56:09;;;;;;;;;;;13.40;99.90;;;;;;4961100;28;20051;-85
2021/07/16 01:58:43;;;;;;;21.52;8.80;;;13.30;99.90;;;;;;4944110;29;19923;-85
2021/07/16 02:01:16;;;;;;;29.48;9.88;;;13.30;99.90;;;;;;4944644;29;20048;-84
2021/07/16 02:03:46;;;;;;;20.85;8.18;;;13.30;99.90;;;;;;4927706;29;20048;-85
2021/07/16 02:06:19;;;;;;;21.52;8.38;;;13.30;99.90;;;;;;4925933;29;20060;-85
2021/07/16 02:08:49;;;;;;;20.55;9.23;;;13.30;99.90;;;;;;4924813;29;20048;-84
2021/07/16 02:11:22;;;;;;;19.95;9.32;;;13.20;99.90;;;;;;4908393;29;20468;-85
2021/07/16 02:13:53;;;;;;;;;;;13.30;99.90;;;;;;4942735;29;20060;-85
2021/07/16 02:16:32;;;;;;;16.50;8.45;;;13.20;99.90;;;;;;4943746;29;19922;-85
2021/07/16 02:19:03;;;;;;;22.92;8.55;;;13.20;99.90;;;;;;4927014;29;20056;-85
2021/07/16 02:21:39;;;;;;;15.57;9.40;;;13.20;99.90;;;;;;4910384;29;20052;-85
2021/07/16 02:24:07;;;;;;;27.58;8.30;;;13.10;99.90;;;;;;4907755;29;20504;-84
2021/07/16 02:26:42;;;;;;;31.48;9.43;;;13.10;99.90;;;;;;4895750;29;20060;-84
2021/07/16 02:29:13;;;;;;;24.23;9.10;;;13.10;99.90;;;;;;4909268;29;20056;-84
2021/07/16 02:31:52;;;;;;;23.70;8.38;;;13.10;99.90;;;;;;4905659;29;20060;-84
2021/07/16 02:34:24;;;;;;;17.65;9.23;;;13.10;99.90;;;;;;4922271;29;20060;-84
2021/07/16 02:36:56;;;;;;;29.02;9.73;;;13.00;99.90;;;;;;4925405;29;20067;-85
2021/07/16 02:39:26;;;;;;;;;;;13.00;99.90;;;;;;4926024;29;20056;-85
2021/07/16 02:41:58;;;;;;;24.50;10.27;;;13.00;99.90;;;;;;4927472;29;19923;-84
2021/07/16 02:44:35;;;;;;;28.38;10.07;;;13.00;99.90;;;;;;4924533;29;20064;-84
2021/07/16 02:47:13;;;;;;;20.38;9.25;;;13.00;99.90;;;;;;4909774;29;20052;-84
2021/07/16 02:49:44;;;;;;;22.90;9.80;;;12.90;99.90;;;;;;4925837;29;20648;-84
2021/07/16 02:52:17;;;;;;;23.30;8.90;;;12.90;99.90;;;;;;4925160;29;20056;-84
2021/07/16 02:54:46;;;;;;;27.30;8.77;;;12.80;99.90;;;;;;4908424;29;20496;-85
2021/07/16 02:57:21;;;;;;;29.40;10.60;;;12.80;99.90;;;;;;4926620;29;20143;-85
2021/07/16 02:59:51;;;;;;;17.20;8.95;;;12.80;99.90;;;;;;4910208;29;20059;-84
2021/07/16 03:02:38;;;;;;;19.50;9.27;;;12.70;99.90;;;;;;4923306;29;20064;-83
2021/07/16 03:05:10;;;;;;;22.02;9.88;;;12.80;99.90;;;;;;4932012;29;20506;-84
2021/07/16 03:07:43;;;;;;;20.98;9.38;;;12.70;99.90;;;;;;4945023;29;20059;-85
2021/07/16 03:10:26;;;;;;;28.00;10.63;;;12.80;99.90;;;;;;4928526;29;20055;-85
2021/07/16 03:13:07;;;;;;;31.70;10.85;;;12.70;99.90;;;;;;4929785;29;20051;-85
2021/07/16 03:15:41;;;;;;;18.88;7.53;;;12.70;99.90;;;;;;4946157;29;20052;-84
2021/07/16 03:18:10;;;;;;;;;;;12.70;99.90;;;;;;4948094;29;20047;-84
2021/07/16 03:20:57;;;;;;;25.65;8.93;;;12.60;99.90;;;;;;4943978;29;19923;-84
2021/07/16 03:23:33;;;;;;;21.60;8.38;;;12.60;99.90;;;;;;4944164;29;20054;-85
2021/07/16 03:26:15;;;;;;;22.20;9.23;;;12.70;99.90;;;;;;4946603;29;20055;-85
2021/07/16 03:28:50;;;;;;;21.55;9.23;;;12.60;99.90;;;;;;4945113;29;20058;-84
2021/07/16 03:31:34;;;;;;;32.35;9.52;;;12.90;99.90;;;;;;4943560;29;20070;-84
2021/07/16 03:34:07;;;;;;;26.10;10.13;;;12.70;99.90;;;;;;4945326;29;20059;-85
2021/07/16 03:36:48;;;;;;;27.48;10.25;;;12.70;99.90;;;;;;4945665;29;20056;-84
2021/07/16 03:39:28;;;;;;;21.55;9.10;;;12.80;99.90;;;;;;4960483;28;20066;-84
2021/07/16 03:41:56;;;;;;;22.92;10.20;;;12.80;99.90;;;;;;4945866;29;20063;-85
2021/07/16 03:44:26;;;;;;;21.92;9.15;;;12.90;99.90;;;;;;4956195;29;20523;-84
2021/07/16 03:47:15;;;;;;;25.92;9.65;;;14.00;99.90;;;;;;4950893;29;20054;-85
2021/07/16 03:50:00;;;;;;;25.73;10.02;;;12.90;99.90;;;;;;4948231;29;20074;-86
2021/07/16 03:52:31;;;;;;;23.65;10.60;;;13.00;99.90;;;;;;4948863;29;20055;-84
2021/07/16 03:55:01;;;;;;;27.13;11.05;;;13.10;99.90;;;;;;4963825;29;20043;-85
2021/07/16 03:57:33;;;;;;;18.50;10.13;;;13.10;99.90;;;;;;4950117;29;20420;-83
2021/07/16 04:00:13;;;;;;;20.88;9.65;;;13.30;99.90;;;;;;4963700;29;20058;-85
2021/07/16 04:02:43;;;;;;;24.08;8.10;;;13.30;99.90;;;;;;4950953;29;20054;-84
2021/07/16 04:05:45;;;;;;;25.80;9.68;;;13.40;99.90;;;;;;4951542;29;20066;-84
2021/07/16 04:08:19;;;;;;;24.20;8.95;;;13.40;99.90;;;;;;4947104;29;20054;-84
2021/07/16 04:10:52;;;;;;;26.70;12.73;;;13.50;99.90;;;;;;4953474;29;20047;-85
2021/07/16 04:13:25;;;;;;;24.65;9.20;;;13.50;99.90;;;;;;4951542;29;20082;-84
2021/07/16 04:16:06;;;;;;;22.05;8.93;;;13.40;99.90;;;;;;4969843;29;20039;-85
2021/07/16 04:18:42;;;;;;;19.50;9.30;;;13.70;99.90;;;;;;4951803;29;20051;-84
2021/07/16 04:21:17;;;;;;;20.63;9.27;;;13.60;99.90;;;;;;4967958;29;20068;-85
2021/07/16 04:23:56;;;;;;;20.02;8.55;;;13.70;99.90;;;;;;4953584;28;20058;-83
2021/07/16 04:26:50;;;;;;;;;;;13.80;99.90;;;;;;4965553;28;20059;-85
2021/07/16 04:29:27;;;;;;;22.02;10.57;;;13.80;99.90;;;;;;4970998;29;19923;-84
2021/07/16 04:31:58;;;;;;;25.08;9.95;;;13.80;99.90;;;;;;4982208;28;20059;-84
2021/07/16 04:34:31;;;;;;;26.95;9.55;;;13.80;99.90;;;;;;4955485;29;20127;-84
2021/07/16 04:37:18;;;;;;;19.80;8.85;;;13.90;99.90;;;;;;4970329;28;20051;-85
2021/07/16 04:39:53;;;;;;;22.40;8.82;;;14.00;99.90;;;;;;4938595;29;20047;-85
2021/07/16 04:42:45;;;;;;;22.00;9.82;;;14.00;99.90;;;;;;4972466;28;20062;-84
2021/07/16 04:45:37;;;;;;;25.30;9.70;;;14.00;99.90;;;;;;4974117;29;20039;-86
2021/07/16 04:48:25;;;;;;;22.40;8.80;;;14.10;99.90;;;;;;4961319;29;20281;-84
2021/07/16 04:51:33;;;;;;;22.98;10.20;;;14.10;99.90;;;;;;4974136;28;20061;-84
2021/07/16 04:54:12;;;;;;;27.00;9.98;;;14.20;99.90;;;;;;4954946;29;20051;-85
2021/07/16 04:56:51;;;;;;;20.75;9.50;;;14.20;99.90;;;;;;4970006;29;20693;-84
2021/07/16 04:59:23;;;;;;;30.20;11.77;;;14.20;99.90;;;;;;4970424;28;20039;-85
2021/07/16 05:02:16;;;;;;;23.48;8.85;;;14.30;99.90;;;;;;4955441;29;20055;-84
2021/07/16 05:04:59;;;;;;;25.35;8.85;;;14.30;99.90;;;;;;4970879;29;20051;-83
2021/07/16 05:07:30;;;;;;;21.40;8.55;;;14.40;99.90;;;;;;4949381;29;20073;-85
2021/07/16 05:10:04;;;;;;;21.25;8.13;;;14.40;99.90;;;;;;4966243;29;20053;-85
2021/07/16 05:12:40;;;;;;;23.17;9.85;;;14.50;99.90;;;;;;4949089;29;20051;-85
2021/07/16 05:15:13;;;;;;;25.23;9.02;;;14.50;99.90;;;;;;4951099;29;20051;-85
2021/07/16 05:17:46;;;;;;;26.50;7.95;;;14.50;99.90;;;;;;4951820;29;20062;-84
2021/07/16 05:20:44;;;;;;;14.60;8.77;;;14.60;99.90;;;;;;4952294;29;20101;-84
2021/07/16 05:23:16;;;;;;;30.30;10.35;;;14.60;99.90;;;;;;4950537;29;20047;-85
2021/07/16 05:26:06;;;;;;;38.20;11.70;;;14.60;99.90;;;;;;4966703;29;20051;-85
2021/07/16 05:29:07;;;;;;;23.98;8.30;;;15.00;99.90;;;;;;4951598;29;20039;-85
2021/07/16 05:31:43;;;;;;;24.17;10.55;;;14.70;99.90;;;;;;4944360;29;20068;-84
2021/07/16 05:34:16;;;;;;;19.45;8.82;;;14.70;99.90;;;;;;4930298;29;20044;-83
2021/07/16 05:36:47;;;;;;;24.13;10.00;;;14.80;99.90;;;;;;4935718;29;20056;-88
2021/07/16 05:39:18;;;;;;;17.88;8.15;;;14.80;99.90;;;;;;4947833;29;20044;-86
2021/07/16 05:41:51;;;;;;;21.90;8.43;;;14.90;99.90;;;;;;4958257;29;20056;-85
2021/07/16 05:44:23;;;;;;;25.38;10.80;;;14.90;99.90;;;;;;4944522;29;20052;-85
2021/07/16 05:46:54;;;;;;;27.15;8.63;;;15.00;99.90;;;;;;4919727;29;20549;-85
2021/07/16 05:49:29;;;;;;;52.53;12.07;;;15.00;99.90;;;;;;4945658;29;20043;-84
2021/07/16 05:51:58;;;;;;;20.23;8.48;;;15.00;99.90;;;;;;4929858;29;20048;-85
2021/07/16 05:54:31;;;;;;;20.40;9.18;;;15.10;99.90;;;;;;4931437;29;20051;-85
2021/07/16 05:57:05;;;;;;;27.90;11.35;;;15.10;99.90;;;;;;4953289;28;20039;-85
2021/07/16 05:59:36;;;;;;;20.05;8.40;;;15.10;99.90;;;;;;4930806;29;20052;-83
2021/07/16 06:02:06;;;;;;;27.80;8.43;;;15.20;99.90;;;;;;4944571;29;20059;-85
2021/07/16 06:04:38;;;;;;;33.67;10.55;;;15.20;99.90;;;;;;4946226;29;20055;-84
2021/07/16 06:07:09;;;;;;;24.47;8.23;;;15.20;99.90;;;;;;4962054;29;20054;-84
2021/07/16 06:09:38;;;;;;;29.77;10.85;;;15.20;99.90;;;;;;4947217;29;20309;-85
2021/07/16 06:12:16;;;;;;;19.02;8.55;;;15.20;99.90;;;;;;4939856;29;20051;-85
2021/07/16 06:14:46;;;;;;;26.17;9.07;;;15.30;99.90;;;;;;4953422;29;20051;-86
2021/07/16 06:17:14;;;;;;;39.15;10.75;;;15.30;99.90;;;;;;4957403;28;20058;-86
2021/07/16 06:19:44;;;;;;;22.55;8.23;;;15.40;99.90;;;;;;4961266;29;20056;-84
2021/07/16 06:22:13;;;;;;;21.30;7.80;;;15.40;99.90;;;;;;4960203;29;20059;-83
2021/07/16 06:24:43;;;;;;;21.67;8.25;;;15.50;99.90;;;;;;4929829;29;20051;-83
2021/07/16 06:27:15;;;;;;;26.25;7.47;;;15.60;99.90;;;;;;4945298;29;20051;-83
2021/07/16 06:29:44;;;;;;;26.25;8.55;;;15.60;99.90;;;;;;4931503;29;20055;-85
2021/07/16 06:32:13;;;;;;;16.88;7.47;;;15.70;99.90;;;;;;4958234;29;20051;-83
2021/07/16 06:34:42;;;;;;;16.85;8.15;;;15.80;99.90;;;;;;4927169;28;20046;-83
2021/07/16 06:37:13;;;;;;;22.40;8.77;;;15.90;99.90;;;;;;4942795;29;20051;-83
2021/07/16 06:39:41;;;;;;;19.42;6.63;;;16.00;99.90;;;;;;4959760;28;20044;-84
2021/07/16 06:42:09;;;;;;;23.30;7.55;;;16.10;99.90;;;;;;4957539;29;20047;-84
2021/07/16 06:44:38;;;;;;;16.17;6.15;;;16.20;99.90;;;;;;4938310;29;20483;-81
2021/07/16 06:47:10;;;;;;;22.75;7.25;;;16.30;99.90;;;;;;4954045;28;20055;-82
2021/07/16 06:49:42;;;;;;;28.33;7.97;;;16.40;99.90;;;;;;4940887;29;20047;-83
2021/07/16 06:52:10;;;;;;;18.52;5.95;;;16.50;99.90;;;;;;4950315;28;20062;-83
2021/07/16 06:54:42;;;;;;;19.27;7.13;;;16.50;99.90;;;;;;4945943;29;20047;-83
2021/07/16 06:57:10;;;;;;;21.08;7.20;;;16.50;99.90;;;;;;4940972;29;20144;-82
2021/07/16 06:59:42;;;;;;;20.20;7.03;;;16.60;99.90;;;;;;4955536;28;20043;-83
2021/07/16 07:02:12;;;;;;;20.48;7.40;;;16.70;99.90;;;;;;4956072;28;20051;-83
2021/07/16 07:04:46;;;;;;;17.95;7.47;;;16.70;99.90;;;;;;4963148;29;20039;-84
2021/07/16 07:07:20;;;;;;;17.63;7.43;;;16.80;99.90;;;;;;4926329;29;20047;-82
2021/07/16 07:09:49;;;;;;;30.65;8.68;;;16.80;99.90;;;;;;4928326;29;20073;-87
2021/07/16 07:12:23;;;;;;;21.50;7.03;;;16.80;99.90;;;;;;4959081;28;20062;-87
2021/07/16 07:15:10;;;;;;;22.98;7.75;;;16.90;99.90;;;;;;4968655;28;20051;-89
2021/07/16 07:17:41;;;;;;;22.45;7.07;;;15.60;99.90;;;;;;4944203;29;20058;-88
2021/07/16 07:20:15;;;;;;;27.77;7.93;;;16.90;99.90;;;;;;4951466;29;20053;-88
2021/07/16 07:22:53;;;;;;;15.65;6.15;;;16.90;99.90;;;;;;4971297;28;20043;-88
2021/07/16 07:25:37;;;;;;;15.52;7.03;;;16.90;99.90;;;;;;4967809;29;20067;-88
2021/07/16 07:28:17;;;;;;;14.98;7.20;;;17.00;99.90;;;;;;4979472;28;20055;-87
2021/07/16 07:31:05;;;;;;;14.40;5.18;;;17.00;99.90;;;;;;4974158;28;20406;-88
2021/07/16 07:33:49;;;;;;;13.85;5.93;;;17.10;99.90;;;;;;4956535;29;20058;-87
2021/07/16 07:36:30;;;;;;;22.15;6.65;;;17.10;99.90;;;;;;4973787;29;20043;-86
2021/07/16 07:39:03;;;;;;;21.92;7.00;;;17.20;99.90;;;;;;4986402;28;20047;-87
2021/07/16 07:41:34;;;;;;;18.80;6.70;;;17.10;99.90;;;;;;4961355;28;20078;-88
2021/07/16 07:44:07;;;;;;;28.40;8.10;;;17.20;99.90;;;;;;4944899;29;20056;-88
2021/07/16 07:46:44;;;;;;;22.30;6.50;;;17.10;99.90;;;;;;4943160;28;20051;-86
2021/07/16 07:49:19;;;;;;;17.75;6.43;;;17.10;99.90;;;;;;4949273;29;20057;-86
2021/07/16 07:52:11;;;;;;;18.88;7.00;;;17.20;99.90;;;;;;4953504;28;20051;-86
2021/07/16 07:54:40;;;;;;;24.70;6.63;;;17.30;99.90;;;;;;4933774;29;20063;-87
2021/07/16 07:57:51;;;;;;;11.48;5.55;;;17.30;99.90;;;;;;4942130;29;20063;-88
2021/07/16 08:00:26;;;;;;;13.93;6.18;;;17.20;99.90;;;;;;4969379;28;20055;-87
2021/07/16 08:03:01;;;;;;;26.35;7.95;;;17.30;99.90;;;;;;4935471;29;20070;-87
2021/07/16 08:05:38;;;;;;;14.20;6.55;;;17.40;99.90;;;;;;4964846;29;20039;-87
2021/07/16 08:08:14;;;;;;;15.15;5.80;;;17.50;99.90;;;;;;4997960;28;20062;-87
2021/07/16 08:10:44;;;;;;;18.52;7.20;;;17.50;99.90;;;;;;4986059;28;20053;-88
2021/07/16 08:13:20;;;;;;;16.35;6.32;;;17.50;99.90;;;;;;4971934;28;20050;-88
2021/07/16 08:16:04;;;;;;;17.23;6.60;;;17.60;99.90;;;;;;4988102;28;20058;-88
2021/07/16 08:18:47;;;;;;;16.75;6.60;;;17.60;99.90;;;;;;4969176;28;20065;-85
2021/07/16 08:21:19;;;;;;;21.48;7.65;;;17.60;99.90;;;;;;5001012;28;20050;-86
2021/07/16 08:23:50;;;;;;;18.02;6.72;;;17.60;99.90;;;;;;4968923;28;20494;-87
2021/07/16 08:26:21;;;;;;;15.45;6.30;;;17.60;99.90;;;;;;5000916;28;20054;-89
2021/07/16 08:28:55;;;;;;;20.75;6.15;;;17.60;99.90;;;;;;4993000;28;20046;-88
2021/07/16 08:31:30;;;;;;;11.65;6.25;;;17.70;99.90;;;;;;4989853;28;20050;-87
2021/07/16 08:34:07;;;;;;;21.45;6.85;;;18.70;99.90;;;;;;5002410;28;20050;-86
2021/07/16 08:36:41;;;;;;;24.35;8.15;;;17.70;99.90;;;;;;4967098;28;20148;-87
2021/07/16 08:39:24;;;;;;;17.20;6.78;;;17.70;99.90;;;;;;4982539;28;20731;-87
2021/07/16 08:41:59;;;;;;;11.20;4.88;;;17.70;99.90;;;;;;4981583;28;20046;-88
2021/07/16 08:44:41;;;;;;;22.40;5.95;;;19.10;99.90;;;;;;5002400;28;20050;-88
2021/07/16 08:47:11;;;;;;;15.35;5.75;;;17.80;99.90;;;;;;5003892;28;20057;-88
2021/07/16 08:49:42;;;;;;;14.48;6.65;;;17.90;99.90;;;;;;4987212;28;20049;-88
2021/07/16 08:52:11;;;;;;;12.05;5.13;;;18.00;99.90;;;;;;4983157;28;20050;-87
2021/07/16 08:54:49;;;;;;;19.08;6.47;;;18.10;99.90;;;;;;4986421;28;20049;-88
2021/07/16 08:57:24;;;;;;;15.63;5.18;;;18.10;99.90;;;;;;4987785;28;20054;-87
2021/07/16 08:59:57;;;;;;;11.65;4.82;;;18.20;99.90;;;;;;4987285;28;20046;-88
2021/07/16 09:02:28;;;;;;;14.40;4.70;;;18.30;99.90;;;;;;4985809;28;20053;-89
2021/07/16 09:05:08;;;;;;;15.40;5.63;;;18.30;99.90;;;;;;5005100;28;20049;-89
2021/07/16 09:07:43;;;;;;;21.43;7.83;;;18.40;99.90;;;;;;5005804;28;20053;-88
2021/07/16 09:10:21;;;;;;;23.80;5.95;;;18.40;99.90;;;;;;4988192;28;20046;-87
2021/07/16 09:13:01;;;;;;;13.93;4.90;;;18.50;99.90;;;;;;5020608;28;20053;-87
2021/07/16 09:15:30;;;;;;;14.98;5.22;;;18.60;99.90;;;;;;4987708;28;20421;-88
2021/07/16 09:18:37;;;;;;;17.27;5.32;;;18.60;99.90;;;;;;4987952;28;20556;-89
2021/07/16 09:21:11;;;;;;;18.10;6.07;;;18.70;99.90;;;;;;4975284;28;20145;-89
2021/07/16 09:23:43;;;;;;;16.55;7.32;;;18.80;99.90;;;;;;4990621;28;20069;-88
2021/07/16 09:26:27;;;;;;;18.23;5.38;;;18.80;99.90;;;;;;4988849;28;20205;-88
2021/07/16 09:29:04;;;;;;;8.13;4.05;;;18.90;99.90;;;;;;4998776;28;20052;-88
2021/07/16 09:31:38;;;;;;;16.65;5.28;;;18.20;99.90;;;;;;4999697;28;20053;-88
2021/07/16 09:34:14;;;;;;;16.05;5.65;;;19.10;99.90;;;;;;5003965;28;20050;-88
2021/07/16 09:36:43;;;;;;;14.10;4.90;;;19.20;99.90;;;;;;5001527;28;20057;-89
2021/07/16 09:39:29;;;;;;;15.23;5.40;;;19.20;99.90;;;;;;5006987;28;20042;-89
2021/07/16 09:42:05;;;;;;;26.27;4.85;;;19.40;99.90;;;;;;5003775;28;20058;-87
2021/07/16 09:44:45;;;;;;;10.02;4.38;;;19.50;99.90;;;;;;5005766;28;20065;-86
2021/07/16 09:47:19;;;;;;;11.95;4.47;;;19.60;99.60;;;;;;5020535;28;20042;-88
2021/07/16 09:50:10;;;;;;;13.55;3.53;;;19.70;99.40;;;;;;5002825;28;20061;-87
2021/07/16 09:52:43;;;;;;;17.38;4.88;;;19.90;99.00;;;;;;4977368;28;20049;-88
2021/07/16 09:55:18;;;;;;;10.45;4.13;;;20.00;99.20;;;;;;5003622;28;20049;-88
2021/07/16 09:57:48;;;;;;;9.27;4.38;;;20.10;99.10;;;;;;4987589;28;20056;-88
2021/07/16 10:00:21;;;;;;;13.13;4.20;;;20.20;98.80;;;;;;4997704;28;20049;-87
2021/07/16 10:02:52;;;;;;;14.20;3.90;;;20.30;98.90;;;;;;5003081;28;20049;-88
2021/07/16 10:05:23;;;;;;;13.32;3.63;;;20.50;98.60;;;;;;4960039;28;20436;-87
2021/07/16 10:08:16;;;;;;;8.32;3.80;;;20.60;98.70;;;;;;5026029;22;20061;-82
2021/07/16 10:10:45;;;;;;;9.15;3.83;;;20.70;97.50;;;;;;5022762;28;20069;-80
2021/07/16 10:13:14;;;;;;;15.20;4.68;;;20.80;98.10;;;;;;5020868;28;20042;-83
2021/07/16 10:15:44;;;;;;;14.98;4.60;;;20.90;98.00;;;;;;5025200;28;20045;-81
2021/07/16 10:18:13;;;;;;;10.82;3.63;;;20.50;97.50;;;;;;5007107;28;20049;-82
2021/07/16 10:20:42;;;;;;;16.30;3.95;;;21.20;97.50;;;;;;5025156;28;20041;-80
2021/07/16 10:23:10;;;;;;;9.57;3.40;;;21.30;97.10;;;;;;5003467;28;20046;-84
2021/07/16 10:25:39;;;;;;;11.00;4.03;;;21.40;96.90;;;;;;5022657;28;20049;-80
2021/07/16 10:28:08;;;;;;;6.75;2.80;;;21.50;95.90;;;;;;5022659;28;20049;-85
2021/07/16 10:30:40;;;;;;;19.40;3.72;;;21.30;96.00;;;;;;5024369;28;20054;-84
2021/07/16 10:33:09;;;;;;;12.43;3.30;;;21.60;95.30;;;;;;5004642;28;20054;-82
2021/07/16 10:35:40;;;;;;;7.88;3.10;;;21.70;95.40;;;;;;5020776;28;20065;-82
2021/07/16 10:38:34;;;;;;;14.35;3.08;;;21.80;95.00;;;;;;5022097;28;20057;-83
2021/07/16 10:41:02;;;;;;;9.18;2.67;;;21.90;94.10;;;;;;5021244;28;20056;-81
2021/07/16 10:43:31;;;;;;;13.25;2.92;;;22.10;95.00;;;;;;5019622;28;20053;-83
2021/07/16 10:46:23;;;;;;;14.30;3.38;;;22.20;94.80;;;;;;4989083;28;20072;-84
2021/07/16 10:48:52;;;;;;;7.55;2.78;;;22.30;94.30;;;;;;5024597;28;20052;-84
2021/07/16 10:51:26;;;;;;;9.48;3.42;;;22.50;94.30;;;;;;5010275;28;20058;-86
2021/07/16 10:53:58;;;;;;;13.82;3.50;;;22.60;93.80;;;;;;5026668;28;20375;-83
2021/07/16 10:56:42;;;;;;;13.63;3.55;;;22.70;93.60;;;;;;5029026;28;20053;-82
2021/07/16 10:59:48;;;;;;;12.80;5.22;;;22.80;93.50;;;;;;5012892;28;20490;-83
2021/07/16 11:02:38;;;;;;;14.85;4.57;;;22.90;92.60;;;;;;4998110;28;20034;-85
2021/07/16 11:05:33;;;;;;;13.02;2.50;;;23.10;93.30;;;;;;5026774;28;20050;-82
2021/07/16 11:08:23;;;;;;;8.15;2.78;;;23.20;91.60;;;;;;5030387;28;20070;-81
2021/07/16 11:11:04;;;;;;;12.05;2.92;;;23.20;92.40;;;;;;5025929;28;20043;-85
2021/07/16 11:13:50;;;;;;;8.27;2.47;;;23.30;91.50;;;;;;5021679;28;20503;-86
2021/07/16 11:16:24;;;;;;;10.77;3.15;;;23.40;91.50;;;;;;5041334;28;20049;-83
2021/07/16 11:18:57;;;;;;;7.80;2.55;;;23.50;91.40;;;;;;4987373;28;20053;-82
2021/07/16 11:21:42;;;;;;;20.25;5.90;;;23.50;91.20;;;;;;5024021;28;20044;-80
2021/07/16 11:24:18;;;;;;;11.32;3.05;;;23.60;90.90;;;;;;5027537;28;20311;-81
2021/07/16 11:26:53;;;;;;;11.88;2.90;;;23.60;91.00;;;;;;5028381;28;20056;-87
2021/07/16 11:29:50;;;;;;;10.13;2.38;;;23.80;90.80;;;;;;5029570;28;20052;-83
2021/07/16 11:32:27;;;;;;;10.27;2.83;;;23.90;90.10;;;;;;5013881;28;20050;-83
2021/07/16 11:34:58;;;;;;;6.85;1.83;;;23.90;85.50;;;;;;4988798;28;20054;-81
2021/07/16 11:37:32;;;;;;;6.95;2.17;;;24.10;88.70;;;;;;5028673;28;20058;-82
2021/07/16 11:40:16;;;;;;;9.98;2.17;;;24.20;87.60;;;;;;5029218;28;20053;-83
2021/07/16 11:42:57;;;;;;;12.65;2.60;;;24.30;86.60;;;;;;5028763;28;20524;-80
2021/07/16 11:45:31;;;;;;;7.82;3.72;;;23.50;86.00;;;;;;5025152;28;20549;-82
2021/07/16 11:48:17;;;;;;;13.80;2.20;;;23.40;86.50;;;;;;5011429;28;20061;-80
2021/07/16 11:50:47;;;;;;;10.77;2.83;;;24.60;86.30;;;;;;5027533;28;20054;-82
2021/07/16 11:53:17;;;;;;;7.72;2.13;;;24.80;86.60;;;;;;5027258;28;20045;-85
2021/07/16 11:55:46;;;;;;;8.13;1.60;;;24.20;85.70;;;;;;5012225;28;20053;-83
2021/07/16 11:58:16;;;;;;;9.50;2.63;;;25.00;84.20;;;;;;5028929;28;20062;-83
2021/07/16 12:00:48;;;;;;;6.38;2.28;;;25.20;84.90;;;;;;5028912;28;20133;-83
2021/07/16 12:03:21;;;;;;;5.38;2.22;;;25.20;84.00;;;;;;5027827;28;20046;-83
2021/07/16 12:05:55;;;;;;;7.68;2.22;;;25.40;83.80;;;;;;5027351;28;20060;-83
2021/07/16 12:08:26;;;;;;;9.95;1.98;;;25.50;82.10;;;;;;4994401;28;20064;-82
2021/07/16 12:11:16;;;;;;;6.35;1.70;;;25.50;81.50;;;;;;5028327;28;20052;-80
2021/07/16 12:14:02;;;;;;;9.40;2.53;;;25.60;80.90;;;;;;5027972;28;20045;-83
2021/07/16 12:16:30;;;;;;;7.90;2.38;;;25.80;81.10;;;;;;5028846;28;20046;-83
2021/07/16 12:19:00;;;;;;;8.05;2.33;;;25.80;80.70;;;;;;5027697;28;20056;-83
2021/07/16 12:21:31;;;;;;;7.30;2.10;;;25.80;80.00;;;;;;5010124;28;20041;-82
2021/07/16 12:24:00;;;;;;;9.97;3.63;;;25.90;80.50;;;;;;5027504;28;20053;-85
2021/07/16 12:26:31;;;;;;;9.93;2.10;;;25.90;79.70;;;;;;5026515;28;20291;-82
2021/07/16 12:29:07;;;;;;;10.80;1.83;;;25.90;80.40;;;;;;5027214;28;20049;-83
2021/07/16 12:31:37;;;;;;;13.10;2.45;;;26.00;79.00;;;;;;5011322;28;20057;-85
2021/07/16 12:34:34;;;;;;;6.10;2.00;;;26.00;80.00;;;;;;5029348;28;20050;-82
2021/07/16 12:37:17;;;;;;;3.85;2.13;;;26.10;77.90;;;;;;5013140;28;20054;-80
2021/07/16 12:39:46;;;;;;;5.00;2.13;;;26.20;78.80;;;;;;5027773;28;20058;-83
2021/07/16 12:42:19;;;;;;;7.82;1.83;;;26.30;79.50;;;;;;4995036;28;20292;-82
2021/07/16 12:45:08;;;;;;;7.47;1.98;;;26.50;78.20;;;;;;5027236;28;20034;-80
2021/07/16 12:47:52;;;;;;;7.32;2.15;;;26.60;78.70;;;;;;5026166;28;20052;-81
2021/07/16 12:50:27;;;;;;;10.35;2.35;;;26.80;78.70;;;;;;5018230;28;20041;-81
2021/07/16 12:53:03;;;;;;;9.68;2.65;;;26.90;79.30;;;;;;5027923;28;20049;-80
2021/07/16 12:55:37;;;;;;;4.10;1.58;;;27.10;79.10;;;;;;5028149;28;20068;-81
2021/07/16 12:58:13;;;;;;;7.28;1.80;;;27.10;77.20;;;;;;5027301;28;20054;-81
2021/07/16 13:00:44;;;;;;;6.70;1.83;;;27.10;76.30;;;;;;5013309;28;20046;-82
2021/07/16 13:03:18;;;;;;;9.07;2.20;;;27.20;79.20;;;;;;5031355;28;20054;-82
2021/07/16 13:05:49;;;;;;;4.80;1.50;;;27.30;78.30;;;;;;5028578;28;20303;-81
2021/07/16 13:08:25;;;;;;;7.28;1.75;;;26.50;77.90;;;;;;5029283;28;20050;-88
2021/07/16 13:11:05;;;;;;;9.13;2.72;;;27.50;78.40;;;;;;5029271;28;20128;-81
2021/07/16 13:13:36;;;;;;;8.68;2.20;;;27.60;77.70;;;;;;5028613;28;20117;-82
2021/07/16 13:16:18;;;;;;;5.90;2.83;;;27.70;78.40;;;;;;5005694;28;20046;-81
2021/07/16 13:18:55;;;;;;;6.38;1.58;;;27.70;78.10;;;;;;5025231;28;20056;-83
2021/07/16 13:21:25;;;;;;;9.55;2.03;;;27.70;77.40;;;;;;5024467;28;20053;-82